Terminal Aerodrome Forecast
Issued by NWS Blacksburg, VA

Home | Current Version | Previous Version | Text Only | Print | Product List | Glossary On
Versions: 1 2 3 4 5 6 7 8 9 10 11 12 13 14 15 16 17 18 19 20 21 22 23 24 25 26 27 28 29 30 31 32 33 34
000
FTUS41 KRNK 230520
TAFBLF
TAF
KBLF 230520Z 2306/2406 25006KT P6SM VCTS BKN045CB
      TEMPO 2307/2311 4SM SHRA BR OVC025
     FM231300 25005KT P6SM BKN045
     FM231600 25008KT P6SM BKN090
     FM232100 25009KT P6SM VCTS SCT030CB BKN060
     FM240300 26005KT P6SM VCTS SCT040CB BKN120=

USA.gov is the U.S. government's official web portal to all federal, state and local government web resources and services.